createdAt,value
2018-12-10T00:00:42.255Z,58.20
2018-12-10T00:02:35.235Z,58.10
2018-12-10T00:03:35.286Z,58.76
2018-12-10T00:05:28.263Z,57.43
2018-12-10T00:06:28.321Z,57.91
2018-12-10T00:08:21.303Z,57.31
2018-12-10T00:09:21.355Z,57.40
2018-12-10T00:11:14.345Z,56.84
2018-12-10T00:12:14.384Z,56.93
2018-12-10T00:14:07.357Z,55.79
2018-12-10T00:15:07.411Z,55.98
2018-12-10T00:17:00.392Z,55.70
2018-12-10T00:18:00.442Z,55.04
2018-12-10T00:19:53.418Z,55.41
2018-12-10T00:20:53.473Z,56.08
2018-12-10T00:22:46.453Z,55.89
2018-12-10T00:23:46.503Z,55.70
2018-12-10T00:25:39.492Z,56.93
2018-12-10T00:26:39.550Z,56.46
2018-12-10T00:28:32.527Z,56.84
2018-12-10T00:29:32.582Z,56.84
2018-12-10T00:31:25.559Z,56.74
2018-12-10T00:32:25.607Z,57.03
2018-12-10T00:34:19.114Z,56.74
2018-12-10T00:35:18.639Z,57.31
2018-12-10T00:37:11.621Z,58.36
2018-12-10T00:38:11.670Z,59.33
2018-12-10T00:40:04.644Z,59.62
2018-12-10T00:41:04.698Z,60.10
2018-12-10T00:42:57.682Z,59.33
2018-12-10T00:43:57.732Z,59.40
2018-12-10T00:45:50.709Z,59.30
2018-12-10T00:46:50.763Z,59.78
2018-12-10T00:48:43.744Z,60.16
2018-12-10T00:49:43.793Z,61.11
2018-12-10T00:51:36.776Z,61.30
2018-12-10T00:52:36.824Z,60.82
2018-12-10T00:54:29.797Z,60.73
2018-12-10T00:55:29.855Z,60.06
2018-12-10T00:57:22.832Z,59.40
2018-12-10T00:58:22.883Z,58.36
2018-12-10T01:00:15.850Z,58.07
2018-12-10T01:01:15.917Z,58.54
2018-12-10T01:03:08.894Z,58.45
2018-12-10T01:04:08.945Z,57.21
2018-12-10T01:06:02.423Z,55.70
2018-12-10T01:07:02.481Z,55.22
2018-12-10T01:08:55.460Z,54.56
2018-12-10T01:09:55.509Z,54.56
2018-12-10T01:11:48.488Z,53.70
2018-12-10T01:12:48.538Z,53.42
2018-12-10T01:14:41.516Z,52.85
2018-12-10T01:15:41.569Z,53.23
2018-12-10T01:17:34.556Z,52.47
2018-12-10T01:18:34.605Z,51.90
2018-12-10T01:20:27.582Z,52.47
2018-12-10T01:21:27.637Z,52.47
2018-12-10T01:23:20.616Z,51.62
2018-12-10T01:24:20.665Z,51.62
2018-12-10T01:26:13.643Z,51.62
2018-12-10T01:27:13.697Z,51.72
2018-12-10T01:29:06.680Z,51.62
2018-12-10T01:30:06.727Z,51.72
2018-12-10T01:31:59.713Z,50.95
2018-12-10T01:32:59.758Z,50.93
2018-12-10T01:34:52.734Z,50.57
2018-12-10T01:35:52.788Z,50.95
2018-12-10T01:37:45.768Z,50.55
2018-12-10T01:38:45.818Z,49.98
2018-12-10T01:40:38.792Z,49.88
2018-12-10T01:41:38.848Z,49.60
2018-12-10T01:43:31.826Z,50.20
2018-12-10T01:44:31.876Z,50.01
2018-12-10T01:46:24.849Z,49.82
2018-12-10T01:47:24.906Z,50.20
2018-12-10T01:49:17.889Z,50.20
2018-12-10T01:50:17.938Z,50.57
2018-12-10T01:52:10.917Z,50.01
2018-12-10T01:53:10.967Z,50.01
2018-12-10T01:55:03.944Z,49.22
2018-12-10T01:56:03.998Z,49.51
2018-12-10T01:57:56.978Z,49.63
2018-12-10T01:58:57.026Z,49.63
2018-12-10T02:00:50.001Z,49.60
2018-12-10T02:01:50.061Z,49.60
2018-12-10T02:03:43.039Z,49.79
2018-12-10T02:04:43.089Z,48.56
2018-12-10T02:06:36.605Z,48.94
2018-12-10T02:07:36.659Z,49.32
2018-12-10T02:09:29.638Z,49.03
2018-12-10T02:10:29.687Z,48.84
2018-12-10T02:12:22.675Z,49.69
2018-12-10T02:13:22.717Z,49.60
2018-12-10T02:15:15.691Z,50.36
2018-12-10T02:16:15.746Z,50.83
2018-12-10T02:18:08.728Z,51.03
2018-12-10T02:19:08.776Z,50.93
2018-12-10T02:21:01.751Z,50.83
2018-12-10T02:22:01.805Z,51.12
2018-12-10T02:23:54.787Z,52.35
2018-12-10T02:24:54.836Z,52.35
2018-12-10T02:26:47.810Z,52.26
2018-12-10T02:27:47.867Z,52.35
2018-12-10T02:29:40.960Z,52.26
2018-12-10T02:30:40.894Z,52.06
2018-12-10T02:32:33.876Z,51.68
2018-12-10T02:33:33.923Z,51.03
2018-12-10T02:35:26.904Z,50.93
2018-12-10T02:36:26.961Z,51.12
2018-12-10T02:38:19.942Z,51.03
2018-12-10T02:39:19.990Z,51.03
2018-12-10T02:41:12.964Z,52.16
2018-12-10T02:42:13.019Z,52.64
2018-12-10T02:44:05.997Z,53.20
2018-12-10T02:45:06.047Z,52.35
2018-12-10T02:46:59.023Z,52.35
2018-12-10T02:47:59.098Z,52.26
2018-12-10T02:49:52.060Z,53.20
2018-12-10T02:50:52.108Z,52.06
2018-12-10T02:52:45.089Z,52.26
2018-12-10T02:53:45.141Z,52.73
2018-12-10T02:55:38.122Z,53.52
2018-12-10T02:56:38.172Z,53.58
2018-12-10T02:58:31.148Z,53.02
2018-12-10T02:59:31.201Z,52.45
2018-12-10T03:01:24.181Z,51.50
2018-12-10T03:02:24.236Z,51.40
2018-12-10T03:04:17.217Z,50.93
2018-12-10T03:05:17.265Z,50.93
2018-12-10T03:07:10.747Z,50.93
2018-12-10T03:08:10.800Z,50.74
2018-12-10T03:10:03.780Z,50.55
2018-12-10T03:11:03.829Z,50.17
2018-12-10T03:12:56.811Z,49.88
2018-12-10T03:13:56.868Z,49.88
2018-12-10T03:15:49.838Z,49.69
2018-12-10T03:16:49.895Z,50.36
2018-12-10T03:18:42.878Z,50.36
2018-12-10T03:19:42.928Z,50.64
2018-12-10T03:21:35.902Z,51.03
2018-12-10T03:22:35.958Z,51.03
2018-12-10T03:24:28.938Z,51.31
2018-12-10T03:25:28.987Z,50.93
2018-12-10T03:27:21.960Z,50.83
2018-12-10T03:28:22.015Z,50.83
2018-12-10T03:30:15.006Z,50.83
2018-12-10T03:31:15.052Z,50.93
2018-12-10T03:33:08.031Z,50.93
2018-12-10T03:34:08.085Z,51.31
2018-12-10T03:36:01.054Z,51.21
2018-12-10T03:37:01.107Z,51.12
2018-12-10T03:38:54.090Z,51.50
2018-12-10T03:39:54.140Z,51.03
2018-12-10T03:41:47.113Z,51.40
2018-12-10T03:42:47.170Z,51.87
2018-12-10T03:44:40.157Z,52.06
2018-12-10T03:45:40.201Z,52.64
2018-12-10T03:47:33.174Z,52.92
2018-12-10T03:48:33.231Z,52.83
2018-12-10T03:50:26.209Z,52.45
2018-12-10T03:51:26.264Z,51.87
2018-12-10T03:53:19.238Z,52.16
2018-12-10T03:54:19.293Z,52.35
2018-12-10T03:56:12.264Z,52.26
2018-12-10T03:57:12.316Z,52.06
2018-12-10T03:59:05.297Z,51.87
2018-12-10T04:00:05.347Z,51.50
2018-12-10T04:01:58.319Z,51.40
2018-12-10T04:02:58.375Z,51.03
2018-12-10T04:04:51.353Z,51.12
2018-12-10T04:05:51.402Z,51.31
2018-12-10T04:07:44.377Z,51.21
2018-12-10T04:08:44.431Z,51.12
2018-12-10T04:10:37.411Z,51.50
2018-12-10T04:11:37.459Z,51.68
2018-12-10T04:13:30.439Z,51.87
2018-12-10T04:14:30.490Z,51.78
2018-12-10T04:16:23.465Z,51.87
2018-12-10T04:17:23.524Z,51.87
2018-12-10T04:19:16.500Z,52.35
2018-12-10T04:20:16.547Z,52.06
2018-12-10T04:22:09.523Z,51.47
2018-12-10T04:23:09.579Z,51.97
2018-12-10T04:25:02.555Z,53.02
2018-12-10T04:26:02.599Z,53.11
2018-12-10T04:27:55.595Z,53.02
2018-12-10T04:28:55.641Z,52.04
2018-12-10T04:30:48.622Z,51.18
2018-12-10T04:31:48.686Z,51.09
2018-12-10T04:33:41.651Z,50.90
2018-12-10T04:34:41.704Z,50.71
2018-12-10T04:36:34.675Z,49.86
2018-12-10T04:37:34.728Z,49.86
2018-12-10T04:39:27.708Z,49.19
2018-12-10T04:40:27.756Z,48.91
2018-12-10T04:42:20.732Z,48.63
2018-12-10T04:43:20.787Z,48.91
2018-12-10T04:45:13.778Z,49.48
2018-12-10T04:46:13.829Z,49.29
2018-12-10T04:48:06.801Z,49.19
2018-12-10T04:49:06.857Z,49.76
2018-12-10T04:50:59.836Z,49.32
2018-12-10T04:51:59.887Z,49.60
2018-12-10T04:53:52.861Z,50.07
2018-12-10T04:54:52.913Z,50.07
2018-12-10T04:56:45.894Z,50.74
2018-12-10T04:57:45.948Z,50.93
2018-12-10T04:59:38.927Z,50.93
2018-12-10T05:00:38.977Z,50.74
2018-12-10T05:02:31.957Z,50.83
2018-12-10T05:03:32.011Z,50.07
2018-12-10T05:05:24.993Z,49.79
2018-12-10T05:06:25.047Z,49.98
2018-12-10T05:08:18.022Z,49.88
2018-12-10T05:09:18.079Z,49.79
2018-12-10T05:11:11.069Z,50.45
2018-12-10T05:12:11.119Z,50.45
2018-12-10T05:14:04.100Z,50.93
2018-12-10T05:15:04.151Z,51.12
2018-12-10T05:16:57.123Z,51.31
2018-12-10T05:17:57.179Z,51.78
2018-12-10T05:19:50.158Z,51.68
2018-12-10T05:20:50.209Z,51.87
2018-12-10T05:22:43.182Z,53.11
2018-12-10T05:23:43.240Z,53.02
2018-12-10T05:25:36.221Z,55.00
2018-12-10T05:26:36.270Z,55.57
2018-12-10T05:28:29.242Z,55.10
2018-12-10T05:29:29.298Z,54.91
2018-12-10T05:31:22.284Z,54.72
2018-12-10T05:32:22.332Z,54.32
2018-12-10T05:34:15.312Z,52.80
2018-12-10T05:35:15.361Z,52.23
2018-12-10T05:37:08.334Z,51.09
2018-12-10T05:38:08.390Z,50.90
2018-12-10T05:40:01.371Z,49.86
2018-12-10T05:41:01.420Z,49.67
2018-12-10T05:42:54.400Z,49.38
2018-12-10T05:43:54.456Z,49.19
2018-12-10T05:45:47.438Z,48.91
2018-12-10T05:46:47.488Z,49.19
2018-12-10T05:48:40.456Z,49.01
2018-12-10T05:49:40.512Z,48.54
2018-12-10T05:51:33.490Z,48.54
2018-12-10T05:52:33.540Z,47.87
2018-12-10T05:54:26.519Z,48.06
2018-12-10T05:55:26.568Z,48.06
2018-12-10T05:57:19.545Z,47.58
2018-12-10T05:58:19.597Z,48.06
2018-12-10T06:00:12.577Z,47.58
2018-12-10T06:01:12.624Z,47.77
2018-12-10T06:03:05.614Z,48.15
2018-12-10T06:04:05.665Z,48.25
2018-12-10T06:05:58.642Z,48.25
2018-12-10T06:06:58.687Z,48.82
2018-12-10T06:08:51.667Z,48.34
2018-12-10T06:09:51.725Z,48.25
2018-12-10T06:11:44.705Z,48.82
2018-12-10T06:12:44.754Z,48.82
2018-12-10T06:14:37.734Z,48.82
2018-12-10T06:15:37.781Z,48.82
2018-12-10T06:17:30.759Z,48.54
2018-12-10T06:18:30.813Z,49.01
2018-12-10T06:20:23.796Z,49.01
2018-12-10T06:21:23.840Z,49.01
2018-12-10T06:23:16.814Z,48.82
2018-12-10T06:24:16.872Z,48.82
2018-12-10T06:26:09.848Z,48.54
2018-12-10T06:27:09.963Z,48.44
2018-12-10T06:29:02.871Z,48.72
2018-12-10T06:30:02.928Z,48.54
2018-12-10T06:31:55.908Z,48.63
2018-12-10T06:32:55.959Z,48.91
2018-12-10T06:34:48.937Z,48.82
2018-12-10T06:35:48.986Z,48.72
2018-12-10T06:37:41.961Z,48.34
2018-12-10T06:38:42.011Z,48.72
2018-12-10T06:40:35.000Z,48.34
2018-12-10T06:41:35.045Z,48.44
2018-12-10T06:43:28.018Z,47.96
2018-12-10T06:44:28.073Z,48.06
2018-12-10T06:46:21.050Z,47.77
2018-12-10T06:47:21.099Z,47.87
2018-12-10T06:49:14.075Z,47.77
2018-12-10T06:50:14.128Z,47.39
2018-12-10T06:52:07.106Z,47.58
2018-12-10T06:53:07.155Z,47.68
2018-12-10T06:55:01.533Z,47.49
2018-12-10T06:56:00.186Z,47.68
2018-12-10T06:57:53.156Z,47.77
2018-12-10T06:58:53.209Z,47.96
2018-12-10T07:00:46.195Z,48.15
2018-12-10T07:01:46.241Z,48.06
2018-12-10T07:03:39.215Z,48.25
2018-12-10T07:04:39.269Z,47.96
2018-12-10T07:06:32.758Z,47.96
2018-12-10T07:07:32.805Z,48.06
2018-12-10T07:09:25.777Z,47.58
2018-12-10T07:10:25.830Z,47.49
2018-12-10T07:12:18.811Z,47.11
2018-12-10T07:13:18.857Z,47.11
2018-12-10T07:15:11.839Z,47.11
2018-12-10T07:16:11.888Z,47.20
2018-12-10T07:18:04.861Z,47.58
2018-12-10T07:19:04.916Z,47.49
2018-12-10T07:20:57.903Z,47.87
2018-12-10T07:21:57.950Z,47.87
2018-12-10T07:23:50.922Z,47.96
2018-12-10T07:24:50.978Z,47.58
2018-12-10T07:26:43.959Z,47.68
2018-12-10T07:27:44.005Z,47.58
2018-12-10T07:29:36.978Z,47.68
2018-12-10T07:30:41.441Z,47.58
2018-12-10T07:32:30.014Z,47.49
2018-12-10T07:33:30.059Z,47.20
2018-12-10T07:35:23.041Z,47.20
2018-12-10T07:36:23.101Z,47.30
2018-12-10T07:38:16.064Z,47.02
2018-12-10T07:39:16.123Z,46.92
2018-12-10T07:41:09.100Z,46.92
2018-12-10T07:42:09.149Z,46.92
2018-12-10T07:44:02.122Z,47.11
2018-12-10T07:45:02.177Z,46.92
2018-12-10T07:46:55.156Z,47.02
2018-12-10T07:47:55.205Z,47.02
2018-12-10T07:49:48.179Z,47.11
2018-12-10T07:50:48.235Z,47.02
2018-12-10T07:52:41.216Z,47.58
2018-12-10T07:53:41.262Z,47.77
2018-12-10T07:55:34.243Z,48.75
2018-12-10T07:56:34.291Z,49.32
2018-12-10T07:58:27.272Z,50.07
2018-12-10T07:59:27.327Z,49.88
2018-12-10T08:01:20.306Z,49.51
2018-12-10T08:02:20.355Z,49.32
2018-12-10T08:04:13.328Z,49.13
2018-12-10T08:05:13.386Z,48.56
2018-12-10T08:07:06.875Z,47.99
2018-12-10T08:08:06.920Z,48.18
2018-12-10T08:09:59.892Z,47.80
2018-12-10T08:10:59.946Z,47.71
2018-12-10T08:12:52.928Z,47.49
2018-12-10T08:13:52.975Z,47.58
2018-12-10T08:15:45.959Z,47.20
2018-12-10T08:16:46.004Z,47.49
2018-12-10T08:18:38.980Z,47.20
2018-12-10T08:19:39.033Z,47.20
2018-12-10T08:21:32.015Z,47.39
2018-12-10T08:22:32.061Z,46.92
2018-12-10T08:24:25.035Z,47.20
2018-12-10T08:25:25.090Z,47.11
2018-12-10T08:27:18.068Z,47.49
2018-12-10T08:28:18.117Z,47.39
2018-12-10T08:30:11.091Z,48.27
2018-12-10T08:31:11.145Z,49.91
2018-12-10T08:33:04.126Z,55.70
2018-12-10T08:34:04.173Z,58.39
2018-12-10T08:35:57.154Z,61.52
2018-12-10T08:36:57.204Z,63.83
2018-12-10T08:38:50.179Z,65.54
2018-12-10T08:39:50.236Z,67.25
2018-12-10T08:41:43.230Z,66.27
2018-12-10T08:42:43.262Z,63.79
2018-12-10T08:44:36.236Z,58.64
2018-12-10T08:45:36.289Z,57.69
2018-12-10T08:47:29.271Z,55.32
2018-12-10T08:48:29.318Z,54.56
2018-12-10T08:50:22.300Z,53.52
2018-12-10T08:51:22.357Z,53.49
2018-12-10T08:53:15.338Z,53.80
2018-12-10T08:54:15.385Z,53.89
2018-12-10T08:56:08.367Z,54.27
2018-12-10T08:57:08.502Z,54.85
2018-12-10T08:59:01.391Z,55.32
2018-12-10T09:00:01.449Z,55.13
2018-12-10T09:01:54.437Z,55.70
2018-12-10T09:02:54.487Z,56.55
2018-12-10T09:04:47.459Z,56.08
2018-12-10T09:05:47.516Z,56.36
2018-12-10T09:07:40.494Z,56.17
2018-12-10T09:08:40.544Z,55.98
2018-12-10T09:10:34.690Z,56.17
2018-12-10T09:11:33.575Z,55.60
2018-12-10T09:13:26.561Z,54.75
2018-12-10T09:14:26.611Z,54.18
2018-12-10T09:16:19.600Z,54.75
2018-12-10T09:17:19.643Z,53.99
2018-12-10T09:19:12.618Z,53.52
2018-12-10T09:20:12.673Z,53.61
2018-12-10T09:22:05.655Z,53.23
2018-12-10T09:23:05.705Z,53.23
2018-12-10T09:24:58.685Z,52.95
2018-12-10T09:25:58.741Z,52.76
2018-12-10T09:27:51.724Z,53.23
2018-12-10T09:28:51.775Z,54.08
2018-12-10T09:30:44.750Z,55.13
2018-12-10T09:31:44.805Z,54.75
2018-12-10T09:33:37.846Z,55.70
2018-12-10T09:34:37.835Z,55.89
2018-12-10T09:36:30.871Z,55.51
2018-12-10T09:37:30.865Z,54.94
2018-12-10T09:39:23.895Z,54.85
2018-12-10T09:40:23.894Z,53.80
2018-12-10T09:42:16.875Z,54.08
2018-12-10T09:43:16.927Z,54.75
2018-12-10T09:45:09.900Z,54.08
2018-12-10T09:46:09.955Z,53.39
2018-12-10T09:48:02.938Z,53.61
2018-12-10T09:49:03.021Z,53.14
2018-12-10T09:50:55.965Z,53.33
2018-12-10T09:51:56.016Z,53.70
2018-12-10T09:53:48.998Z,55.22
2018-12-10T09:54:49.048Z,55.98
2018-12-10T09:56:42.026Z,55.32
2018-12-10T09:57:42.075Z,54.85
2018-12-10T09:59:35.050Z,54.46
2018-12-10T10:00:35.106Z,54.56
2018-12-10T10:02:28.086Z,55.22
2018-12-10T10:03:28.136Z,54.68
2018-12-10T10:05:21.113Z,56.01
2018-12-10T10:06:21.166Z,55.82
2018-12-10T10:08:14.147Z,55.91
2018-12-10T10:09:14.197Z,56.01
2018-12-10T10:11:07.171Z,55.06
2018-12-10T10:12:07.228Z,54.39
2018-12-10T10:14:00.210Z,54.68
2018-12-10T10:15:00.257Z,55.35
2018-12-10T10:16:53.240Z,55.04
2018-12-10T10:17:53.288Z,54.97
2018-12-10T10:19:46.265Z,56.20
2018-12-10T10:20:46.320Z,55.25
2018-12-10T10:22:39.307Z,54.68
2018-12-10T10:23:39.349Z,53.45
2018-12-10T10:25:32.327Z,52.95
2018-12-10T10:26:32.381Z,53.04
2018-12-10T10:28:25.450Z,53.64
2018-12-10T10:29:25.415Z,53.64
2018-12-10T10:31:18.387Z,52.37
2018-12-10T10:32:18.443Z,52.19
2018-12-10T10:34:11.425Z,51.62
2018-12-10T10:35:11.473Z,52.09
2018-12-10T10:37:04.454Z,52.12
2018-12-10T10:38:04.504Z,52.31
2018-12-10T10:39:57.480Z,52.78
2018-12-10T10:40:57.538Z,52.97
2018-12-10T10:42:50.516Z,54.39
2018-12-10T10:43:50.565Z,53.73
2018-12-10T10:45:43.539Z,54.21
2018-12-10T10:46:43.595Z,55.16
2018-12-10T10:48:36.576Z,55.06
2018-12-10T10:49:36.624Z,55.06
2018-12-10T10:51:29.601Z,55.91
2018-12-10T10:52:33.247Z,56.39
2018-12-10T10:54:22.644Z,56.10
2018-12-10T10:55:22.693Z,57.15
2018-12-10T10:57:15.675Z,57.15
2018-12-10T10:58:15.723Z,55.91
2018-12-10T11:00:08.705Z,57.06
2018-12-10T11:01:08.754Z,57.62
2018-12-10T11:03:01.737Z,57.53
2018-12-10T11:04:01.792Z,56.89
2018-12-10T11:05:54.766Z,57.94
2018-12-10T11:06:54.820Z,60.31
2018-12-10T11:08:48.052Z,61.36
2018-12-10T11:09:48.009Z,61.93
2018-12-10T11:11:40.829Z,62.02
2018-12-10T11:12:40.885Z,62.21
2018-12-10T11:14:33.865Z,61.93
2018-12-10T11:15:33.915Z,61.83
2018-12-10T11:17:26.900Z,64.02
2018-12-10T11:18:26.951Z,62.78
2018-12-10T11:20:19.925Z,64.21
2018-12-10T11:21:19.983Z,64.40
2018-12-10T11:23:12.970Z,63.35
2018-12-10T11:24:13.013Z,64.11
2018-12-10T11:26:05.989Z,65.95
2018-12-10T11:27:06.046Z,64.24
2018-12-10T11:28:59.031Z,64.90
2018-12-10T11:29:59.076Z,64.05
2018-12-10T11:31:52.060Z,62.88
2018-12-10T11:32:52.115Z,62.69
2018-12-10T11:34:45.103Z,63.92
2018-12-10T11:35:45.149Z,64.72
2018-12-10T11:37:38.130Z,63.67
2018-12-10T11:38:38.179Z,64.62
2018-12-10T11:40:31.156Z,65.67
2018-12-10T11:41:31.212Z,67.00
2018-12-10T11:43:24.194Z,64.81
2018-12-10T11:44:24.245Z,64.43
2018-12-10T11:46:17.219Z,68.13
2018-12-10T11:47:17.276Z,66.90
2018-12-10T11:49:10.259Z,65.95
2018-12-10T11:50:10.318Z,66.05
2018-12-10T11:52:03.283Z,65.09
2018-12-10T11:53:03.341Z,66.80
2018-12-10T11:54:56.321Z,66.42
2018-12-10T11:55:56.371Z,66.61
2018-12-10T11:57:49.360Z,68.13
2018-12-10T11:58:49.403Z,66.90
2018-12-10T12:00:42.380Z,66.42
2018-12-10T12:01:42.437Z,66.90
2018-12-10T12:03:35.425Z,68.52
2018-12-10T12:04:35.470Z,68.52
2018-12-10T12:06:28.954Z,69.37
2018-12-10T12:07:29.010Z,67.19
2018-12-10T12:09:21.994Z,67.76
2018-12-10T12:10:22.042Z,69.85
2018-12-10T12:12:15.026Z,68.48
2018-12-10T12:13:15.079Z,69.05
2018-12-10T12:15:08.058Z,65.92
2018-12-10T12:16:08.108Z,67.00
2018-12-10T12:18:01.093Z,68.13
2018-12-10T12:19:01.141Z,66.71
2018-12-10T12:20:54.122Z,67.85
2018-12-10T12:21:54.176Z,67.76
2018-12-10T12:23:47.158Z,68.01
2018-12-10T12:24:47.208Z,68.19
2018-12-10T12:26:40.184Z,67.63
2018-12-10T12:27:40.238Z,68.48
2018-12-10T12:29:33.224Z,66.49
2018-12-10T12:30:33.273Z,66.67
2018-12-10T12:32:26.250Z,69.46
2018-12-10T12:33:26.304Z,67.91
2018-12-10T12:35:19.287Z,65.92
2018-12-10T12:36:19.337Z,65.73
2018-12-10T12:38:12.392Z,66.11
2018-12-10T12:39:12.371Z,66.39
2018-12-10T12:41:05.348Z,69.56
2018-12-10T12:42:05.405Z,69.37
2018-12-10T12:43:58.392Z,67.57
2018-12-10T12:44:58.440Z,68.42
2018-12-10T12:46:51.421Z,67.38
2018-12-10T12:47:51.477Z,68.33
2018-12-10T12:49:44.457Z,69.66
2018-12-10T12:50:44.507Z,67.38
2018-12-10T12:52:37.486Z,69.85
2018-12-10T12:53:37.542Z,67.66
2018-12-10T12:55:30.520Z,70.13
2018-12-10T12:56:30.571Z,70.51
2018-12-10T12:58:23.552Z,69.56
2018-12-10T12:59:23.604Z,69.27
2018-12-10T13:01:16.579Z,68.33
2018-12-10T13:02:16.634Z,70.42
2018-12-10T13:04:09.622Z,69.24
2018-12-10T13:05:09.666Z,70.04
2018-12-10T13:07:03.152Z,68.67
2018-12-10T13:08:03.206Z,68.96
2018-12-10T13:09:56.189Z,70.48
2018-12-10T13:10:56.243Z,70.19
2018-12-10T13:12:49.490Z,67.91
2018-12-10T13:13:49.287Z,67.72
2018-12-10T13:15:42.284Z,65.82
2018-12-10T13:16:49.262Z,68.29
2018-12-10T13:18:35.299Z,68.80
2018-12-10T13:19:35.379Z,69.43
2018-12-10T13:21:28.329Z,68.99
2018-12-10T13:22:28.384Z,68.67
2018-12-10T13:24:21.365Z,68.67
2018-12-10T13:25:21.422Z,65.82
2018-12-10T13:27:14.399Z,67.25
2018-12-10T13:28:14.452Z,65.82
2018-12-10T13:30:07.437Z,66.87
2018-12-10T13:31:07.486Z,68.01
2018-12-10T13:33:00.461Z,69.62
2018-12-10T13:34:00.518Z,69.24
2018-12-10T13:35:53.504Z,72.22
2018-12-10T13:36:53.550Z,72.70
2018-12-10T13:38:46.534Z,72.32
2018-12-10T13:39:46.586Z,72.22
2018-12-10T13:41:39.559Z,72.51
2018-12-10T13:42:39.618Z,72.28
2018-12-10T13:44:32.595Z,70.79
2018-12-10T13:45:32.682Z,71.66
2018-12-10T13:47:25.625Z,71.46
2018-12-10T13:48:25.680Z,69.66
2018-12-10T13:50:18.661Z,72.70
2018-12-10T13:51:18.727Z,71.94
2018-12-10T13:53:11.689Z,71.27
2018-12-10T13:54:11.742Z,71.84
2018-12-10T13:56:04.724Z,70.99
2018-12-10T13:57:04.775Z,69.75
2018-12-10T13:58:57.758Z,69.85
2018-12-10T13:59:57.818Z,69.37
2018-12-10T14:01:50.787Z,69.18
2018-12-10T14:02:50.845Z,68.04
2018-12-10T14:04:43.820Z,65.16
2018-12-10T14:05:47.525Z,67.44
2018-12-10T14:07:36.847Z,66.01
2018-12-10T14:08:36.903Z,66.01
2018-12-10T14:10:29.885Z,65.63
2018-12-10T14:11:29.936Z,65.63
2018-12-10T14:13:22.910Z,66.30
2018-12-10T14:14:22.967Z,65.25
2018-12-10T14:16:15.955Z,66.30
2018-12-10T14:17:16.003Z,67.44
2018-12-10T14:19:08.992Z,68.39
2018-12-10T14:20:09.041Z,68.86
2018-12-10T14:22:02.019Z,69.15
2018-12-10T14:23:02.075Z,69.34
2018-12-10T14:24:55.058Z,71.04
2018-12-10T14:25:55.110Z,70.57
2018-12-10T14:27:48.082Z,72.19
2018-12-10T14:28:48.140Z,72.19
2018-12-10T14:30:41.123Z,72.47
2018-12-10T14:31:41.171Z,72.95
2018-12-10T14:33:34.154Z,73.48
2018-12-10T14:34:34.210Z,73.38
2018-12-10T14:36:27.193Z,74.81
2018-12-10T14:37:27.244Z,74.62
2018-12-10T14:39:20.224Z,73.96
2018-12-10T14:40:20.272Z,73.38
2018-12-10T14:42:13.249Z,73.00
2018-12-10T14:43:13.305Z,73.10
2018-12-10T14:45:06.286Z,72.63
2018-12-10T14:46:06.334Z,73.29
2018-12-10T14:47:59.312Z,72.53
2018-12-10T14:48:59.388Z,72.63
2018-12-10T14:50:52.347Z,72.25
2018-12-10T14:51:52.397Z,71.48
2018-12-10T14:53:45.372Z,71.96
2018-12-10T14:54:45.428Z,71.39
2018-12-10T14:56:38.411Z,71.48
2018-12-10T14:57:38.464Z,71.67
2018-12-10T14:59:31.451Z,71.58
2018-12-10T15:00:31.498Z,71.77
2018-12-10T15:02:24.979Z,72.06
2018-12-10T15:03:25.032Z,72.15
2018-12-10T15:05:18.014Z,71.96
2018-12-10T15:06:18.061Z,72.53
2018-12-10T15:08:11.041Z,72.34
2018-12-10T15:09:11.098Z,72.53
2018-12-10T15:11:04.083Z,72.44
2018-12-10T15:12:04.132Z,72.25
2018-12-10T15:13:57.620Z,72.06
2018-12-10T15:14:57.673Z,71.20
2018-12-10T15:16:50.655Z,71.01
2018-12-10T15:17:50.703Z,70.98
2018-12-10T15:19:43.692Z,70.12
2018-12-10T15:20:43.736Z,70.59
2018-12-10T15:22:36.711Z,69.36
2018-12-10T15:23:36.765Z,69.17
2018-12-10T15:25:29.748Z,68.04
2018-12-10T15:26:29.794Z,68.13
2018-12-10T15:28:23.013Z,67.75
2018-12-10T15:29:22.829Z,67.56
2018-12-10T15:31:15.817Z,65.95
2018-12-10T15:32:15.863Z,66.33
2018-12-10T15:34:08.838Z,65.37
2018-12-10T15:35:08.890Z,65.47
2018-12-10T15:37:01.887Z,65.09
2018-12-10T15:38:01.917Z,65.00
2018-12-10T15:39:54.937Z,64.81
2018-12-10T15:40:54.981Z,64.62
2018-12-10T15:42:47.977Z,64.62
2018-12-10T15:43:48.029Z,64.24
2018-12-10T15:45:41.014Z,64.43
2018-12-10T15:46:41.054Z,64.71
2018-12-10T15:48:34.064Z,64.05
2018-12-10T15:49:34.096Z,64.14
2018-12-10T15:51:27.075Z,67.56
2018-12-10T15:52:27.125Z,67.85
2018-12-10T15:54:20.102Z,68.98
2018-12-10T15:55:20.157Z,69.46
2018-12-10T15:57:13.155Z,70.98
2018-12-10T15:58:13.408Z,70.03
2018-12-10T16:00:06.182Z,72.11
2018-12-10T16:01:06.234Z,72.11
2018-12-10T16:02:59.209Z,72.11
2018-12-10T16:03:59.264Z,71.26
2018-12-10T16:05:52.243Z,70.21
2018-12-10T16:06:52.291Z,69.46
2018-12-10T16:08:45.274Z,68.79
2018-12-10T16:09:45.327Z,68.51
2018-12-10T16:11:38.311Z,68.04
2018-12-10T16:12:38.366Z,66.33
2018-12-10T16:14:31.850Z,65.28
2018-12-10T16:15:31.904Z,64.87
2018-12-10T16:17:24.889Z,64.43
2018-12-10T16:18:24.932Z,63.73
2018-12-10T16:20:17.915Z,63.48
2018-12-10T16:21:17.964Z,62.69
2018-12-10T16:23:10.943Z,62.12
2018-12-10T16:24:10.994Z,61.55
2018-12-10T16:26:03.979Z,61.46
2018-12-10T16:27:04.022Z,61.08
2018-12-10T16:28:56.998Z,60.60
2018-12-10T16:29:57.137Z,61.08
2018-12-10T16:31:50.050Z,61.27
2018-12-10T16:32:50.399Z,61.17
2018-12-10T16:34:43.065Z,60.92
2018-12-10T16:35:43.133Z,60.82
2018-12-10T16:37:36.102Z,60.79
2018-12-10T16:38:36.150Z,61.11
2018-12-10T16:40:29.130Z,60.92
2018-12-10T16:41:29.179Z,60.63
2018-12-10T16:43:22.156Z,61.30
2018-12-10T16:44:22.243Z,61.68
2018-12-10T16:46:15.193Z,62.43
2018-12-10T16:47:15.249Z,62.34
2018-12-10T16:49:08.218Z,62.15
2018-12-10T16:50:08.271Z,62.53
2018-12-10T16:52:01.267Z,62.53
2018-12-10T16:53:01.299Z,62.53
2018-12-10T16:54:54.279Z,62.91
2018-12-10T16:55:54.333Z,62.43
2018-12-10T16:57:47.320Z,64.05
2018-12-10T16:58:47.368Z,64.24
2018-12-10T17:00:40.380Z,63.57
2018-12-10T17:01:40.398Z,64.24
2018-12-10T17:03:33.366Z,64.24
2018-12-10T17:04:33.422Z,64.62
2018-12-10T17:06:26.399Z,64.62
2018-12-10T17:07:26.449Z,64.62
2018-12-10T17:09:19.431Z,64.43
2018-12-10T17:10:19.479Z,65.00
2018-12-10T17:12:12.461Z,65.28
2018-12-10T17:13:12.509Z,65.47
2018-12-10T17:15:05.491Z,64.33
2018-12-10T17:16:05.547Z,65.09
2018-12-10T17:17:58.526Z,65.00
2018-12-10T17:18:58.576Z,65.47
2018-12-10T17:20:51.560Z,65.95
2018-12-10T17:21:51.609Z,66.89
2018-12-10T17:23:44.577Z,67.18
2018-12-10T17:24:44.643Z,66.52
2018-12-10T17:26:37.620Z,65.95
2018-12-10T17:27:37.666Z,65.66
2018-12-10T17:29:31.156Z,66.42
2018-12-10T17:30:31.202Z,66.23
2018-12-10T17:32:24.185Z,65.95
2018-12-10T17:33:24.237Z,66.33
2018-12-10T17:35:17.210Z,65.19
2018-12-10T17:36:17.262Z,65.09
2018-12-10T17:38:10.246Z,63.86
2018-12-10T17:39:10.295Z,63.86
2018-12-10T17:41:06.585Z,62.72
2018-12-10T17:42:03.335Z,63.20
2018-12-10T17:43:56.312Z,62.62
2018-12-10T17:44:56.363Z,62.62
2018-12-10T17:46:49.345Z,61.01
2018-12-10T17:47:49.405Z,60.53
2018-12-10T17:49:42.379Z,60.35
2018-12-10T17:50:42.435Z,60.16
2018-12-10T17:52:35.415Z,60.35
2018-12-10T17:53:35.467Z,59.78
2018-12-10T17:55:28.446Z,59.88
2018-12-10T17:56:28.501Z,59.40
2018-12-10T17:58:21.480Z,59.59
2018-12-10T17:59:21.535Z,59.59
2018-12-10T18:01:14.512Z,59.11
2018-12-10T18:02:14.558Z,58.64
2018-12-10T18:04:07.538Z,58.36
2018-12-10T18:05:07.594Z,57.59
2018-12-10T18:07:00.577Z,57.40
2018-12-10T18:08:00.626Z,56.62
2018-12-10T18:09:53.601Z,55.67
2018-12-10T18:10:53.657Z,55.67
2018-12-10T18:12:46.630Z,55.86
2018-12-10T18:13:46.685Z,55.48
2018-12-10T18:15:39.671Z,54.72
2018-12-10T18:16:39.716Z,54.63
2018-12-10T18:18:32.737Z,54.34
2018-12-10T18:19:32.744Z,54.44
2018-12-10T18:21:25.723Z,53.68
2018-12-10T18:22:25.773Z,53.87
2018-12-10T18:24:18.752Z,53.30
2018-12-10T18:25:18.808Z,53.30
2018-12-10T18:27:11.790Z,53.68
2018-12-10T18:28:11.835Z,54.15
2018-12-10T18:30:06.318Z,54.53
2018-12-10T18:31:06.374Z,54.15
2018-12-10T18:32:59.359Z,53.96
2018-12-10T18:33:59.404Z,54.15